Terminal Aerodrome Forecast
Issued by NWS Flagstaff, AZ

Home | Current Version | Previous Version | Text Only | Print | Product List | Glossary On
Versions: 1 2 3 4 5 6 7 8 9 10 11 12 13
000
FTUS45 KFGZ 302333
TAFFLG
TAF
KFLG 302333Z 3100/3124 06010KT P6SM SCT100
     FM310200 VRB05KT P6SM SKC
     FM311900 VRB05KT P6SM VCSH BKN090=

USA.gov is the U.S. government's official web portal to all federal, state and local government web resources and services.